createdAt,value
2022-12-19T00:00:31.903Z,101867.69
2022-12-19T00:03:01.720Z,101871.13
2022-12-19T00:05:30.096Z,101874.59
2022-12-19T00:07:59.000Z,101881.44
2022-12-19T00:10:30.714Z,101879.59
2022-12-19T00:12:58.976Z,101863.31
2022-12-19T00:15:27.282Z,101849.69
2022-12-19T00:17:55.556Z,101847.94
2022-12-19T00:20:25.254Z,101862.59
2022-12-19T00:22:53.585Z,101865.63
2022-12-19T00:25:22.034Z,101866.28
2022-12-19T00:27:50.333Z,101855.84
2022-12-19T00:30:18.996Z,101857.53
2022-12-19T00:32:47.677Z,101844.81
2022-12-19T00:35:16.214Z,101841.50
2022-12-19T00:37:49.729Z,101842.03
2022-12-19T00:40:18.625Z,101857.09
2022-12-19T00:42:53.188Z,101833.34
2022-12-19T00:45:22.090Z,101845.88
2022-12-19T00:47:50.377Z,101790.38
2022-12-19T00:50:18.746Z,101828.28
2022-12-19T00:52:48.354Z,101797.50
2022-12-19T00:55:19.301Z,101832.56
2022-12-19T00:57:48.346Z,101821.97
2022-12-19T01:00:18.642Z,101810.78
2022-12-19T01:02:47.267Z,101789.63
2022-12-19T01:05:15.637Z,101807.75
2022-12-19T01:07:43.925Z,101796.34
2022-12-19T01:10:13.988Z,101793.06
2022-12-19T01:12:46.949Z,101806.22
2022-12-19T01:15:17.672Z,101779.84
2022-12-19T01:17:46.104Z,101771.47
2022-12-19T01:20:16.673Z,101737.19
2022-12-19T01:22:46.921Z,101793.06
2022-12-19T01:25:17.256Z,101776.69
2022-12-19T01:27:45.573Z,101760.66
2022-12-19T01:30:14.910Z,101783.94
2022-12-19T01:32:43.685Z,101759.28
2022-12-19T01:35:19.780Z,101773.94
2022-12-19T01:37:51.527Z,101775.25
2022-12-19T01:40:22.526Z,101776.16
2022-12-19T01:42:51.589Z,101775.69
2022-12-19T01:45:34.473Z,101775.25
2022-12-19T01:48:18.523Z,101778.34
2022-12-19T01:51:01.283Z,101775.16
2022-12-19T01:53:49.467Z,101765.13
2022-12-19T01:56:24.169Z,101768.78
2022-12-19T01:59:05.605Z,101764.72
2022-12-19T02:01:44.983Z,101750.84
2022-12-19T02:04:21.491Z,101745.97
2022-12-19T02:06:51.258Z,101737.00
2022-12-19T02:09:20.094Z,101743.00
2022-12-19T02:11:54.069Z,101736.03
2022-12-19T02:14:23.149Z,101732.00
2022-12-19T02:17:02.850Z,101713.94
2022-12-19T02:20:16.815Z,101712.25
2022-12-19T02:23:04.506Z,101726.00
2022-12-19T02:26:01.422Z,101718.41
2022-12-19T02:29:11.828Z,101711.31
2022-12-19T02:31:49.303Z,101696.13
2022-12-19T02:34:26.886Z,101686.06
2022-12-19T02:37:06.118Z,101672.41
2022-12-19T02:39:43.121Z,101692.03
2022-12-19T02:42:16.281Z,101689.69
2022-12-19T02:44:52.289Z,101684.09
2022-12-19T02:47:23.347Z,101658.81
2022-12-19T02:49:51.952Z,101667.31
2022-12-19T02:52:46.046Z,101681.47
2022-12-19T02:55:21.328Z,101659.53
2022-12-19T02:58:16.869Z,101674.00
2022-12-19T03:01:11.180Z,101674.38
2022-12-19T03:03:53.422Z,101661.16
2022-12-19T03:06:32.890Z,101676.31
2022-12-19T03:09:10.735Z,101665.44
2022-12-19T03:11:43.089Z,101661.69
2022-12-19T03:14:15.587Z,101628.44
2022-12-19T03:16:44.168Z,101637.69
2022-12-19T03:19:15.987Z,101661.03
2022-12-19T03:21:47.732Z,101627.97
2022-12-19T03:24:17.764Z,101661.78
2022-12-19T03:26:53.184Z,101647.91
2022-12-19T03:29:28.285Z,101660.22
2022-12-19T03:31:58.379Z,101653.72
2022-12-19T03:34:33.585Z,101655.41
2022-12-19T03:37:06.465Z,101643.78
2022-12-19T03:39:37.295Z,101645.75
2022-12-19T03:42:25.113Z,101650.66
2022-12-19T03:44:56.692Z,101623.84
2022-12-19T03:47:32.942Z,101641.00
2022-12-19T03:50:02.936Z,101614.09
2022-12-19T03:52:40.343Z,101650.06
2022-12-19T03:55:16.472Z,101633.88
2022-12-19T03:57:52.515Z,101639.25
2022-12-19T04:00:22.150Z,101639.97
2022-12-19T04:02:53.526Z,101643.19
2022-12-19T04:05:27.022Z,101642.09
2022-12-19T04:07:59.311Z,101628.28
2022-12-19T04:10:29.980Z,101619.19
2022-12-19T04:13:04.173Z,101582.13
2022-12-19T04:15:42.833Z,101644.44
2022-12-19T04:18:14.830Z,101645.06
2022-12-19T04:20:48.241Z,101641.44
2022-12-19T04:23:22.658Z,101645.75
2022-12-19T04:25:56.577Z,101635.00
2022-12-19T04:28:31.652Z,101608.34
2022-12-19T04:31:01.029Z,101637.41
2022-12-19T04:33:29.317Z,101620.84
2022-12-19T04:35:59.602Z,101640.06
2022-12-19T04:38:28.340Z,101633.56
2022-12-19T04:40:56.656Z,101646.34
2022-12-19T04:43:24.995Z,101632.59
2022-12-19T04:45:57.273Z,101604.97
2022-12-19T04:48:26.177Z,101631.38
2022-12-19T04:50:54.701Z,101626.88
2022-12-19T04:53:25.672Z,101623.94
2022-12-19T04:56:02.346Z,101636.34
2022-12-19T04:58:30.808Z,101632.13
2022-12-19T05:01:03.029Z,101635.75
2022-12-19T05:03:31.326Z,101629.13
2022-12-19T05:06:07.963Z,101624.22
2022-12-19T05:08:39.406Z,101607.03
2022-12-19T05:11:19.175Z,101608.94
2022-12-19T05:13:49.933Z,101605.59
2022-12-19T05:16:18.814Z,101604.84
2022-12-19T05:18:47.315Z,101619.59
2022-12-19T05:21:15.793Z,101617.41
2022-12-19T05:23:45.410Z,101589.75
2022-12-19T05:26:14.165Z,101615.91
2022-12-19T05:28:42.655Z,101613.69
2022-12-19T05:31:15.892Z,101570.38
2022-12-19T05:33:44.922Z,101584.22
2022-12-19T05:36:16.656Z,101612.63
2022-12-19T05:38:46.549Z,101606.00
2022-12-19T05:41:16.584Z,101612.41
2022-12-19T05:43:46.096Z,101575.69
2022-12-19T05:46:14.464Z,101622.72
2022-12-19T05:48:42.861Z,101618.91
2022-12-19T05:51:11.757Z,101612.03
2022-12-19T05:53:41.313Z,101615.28
2022-12-19T05:56:13.357Z,101620.81
2022-12-19T05:58:42.869Z,101584.38
2022-12-19T06:01:14.869Z,101617.56
2022-12-19T06:03:44.289Z,101612.34
2022-12-19T06:06:15.836Z,101614.25
2022-12-19T06:08:44.487Z,101620.34
2022-12-19T06:11:15.349Z,101616.06
2022-12-19T06:13:44.000Z,101621.41
2022-12-19T06:16:15.014Z,101592.97
2022-12-19T06:18:45.614Z,101604.28
2022-12-19T06:21:17.406Z,101614.19
2022-12-19T06:23:46.456Z,101631.69
2022-12-19T06:26:20.309Z,101604.53
2022-12-19T06:28:49.628Z,101601.88
2022-12-19T06:31:18.902Z,101621.84
2022-12-19T06:33:47.340Z,101618.31
2022-12-19T06:36:20.633Z,101619.09
2022-12-19T06:38:49.517Z,101620.28
2022-12-19T06:41:37.441Z,101584.09
2022-12-19T06:44:09.232Z,101627.59
2022-12-19T06:46:38.642Z,101603.97
2022-12-19T06:49:07.507Z,101597.53
2022-12-19T06:51:36.005Z,101629.91
2022-12-19T06:54:04.856Z,101623.75
2022-12-19T06:56:38.268Z,101628.53
2022-12-19T06:59:07.521Z,101605.06
2022-12-19T07:01:59.054Z,101631.00
2022-12-19T07:04:33.056Z,101619.03
2022-12-19T07:07:01.881Z,101619.59
2022-12-19T07:09:31.863Z,101635.28
2022-12-19T07:12:01.823Z,101606.00
2022-12-19T07:14:30.108Z,101636.56
2022-12-19T07:17:01.045Z,101634.91
2022-12-19T07:19:31.548Z,101631.16
2022-12-19T07:22:01.641Z,101639.44
2022-12-19T07:24:30.922Z,101608.84
2022-12-19T07:27:01.008Z,101588.28
2022-12-19T07:29:29.245Z,101630.63
2022-12-19T07:31:57.563Z,101625.47
2022-12-19T07:34:25.900Z,101637.50
2022-12-19T07:36:54.231Z,101651.53
2022-12-19T07:39:22.928Z,101630.31
2022-12-19T07:41:51.188Z,101640.22
2022-12-19T07:44:32.459Z,101653.25
2022-12-19T07:47:00.670Z,101653.31
2022-12-19T07:49:29.011Z,101650.53
2022-12-19T07:51:57.435Z,101663.28
2022-12-19T07:54:25.844Z,101670.25
2022-12-19T07:56:54.211Z,101667.69
2022-12-19T07:59:28.884Z,101667.13
2022-12-19T08:02:00.178Z,101655.97
2022-12-19T08:04:28.697Z,101652.09
2022-12-19T08:06:57.342Z,101650.53
2022-12-19T08:09:27.726Z,101667.41
2022-12-19T08:11:56.369Z,101675.13
2022-12-19T08:14:24.628Z,101668.75
2022-12-19T08:19:42.661Z,101659.66
2022-12-19T08:22:10.982Z,101656.38
2022-12-19T08:24:39.432Z,101674.00
2022-12-19T08:27:07.690Z,101669.06
2022-12-19T08:29:36.053Z,101663.97
2022-12-19T08:32:04.455Z,101642.38
2022-12-19T08:34:32.915Z,101674.09
2022-12-19T08:37:02.674Z,101677.41
2022-12-19T08:39:31.010Z,101673.47
2022-12-19T08:41:59.253Z,101679.09
2022-12-19T08:44:27.543Z,101687.50
2022-12-19T08:46:55.987Z,101666.28
2022-12-19T08:49:24.350Z,101682.75
2022-12-19T08:51:52.627Z,101673.38
2022-12-19T08:54:22.450Z,101684.41
2022-12-19T08:56:50.739Z,101691.84
2022-12-19T08:59:30.333Z,101671.38
2022-12-19T09:02:00.616Z,101694.31
2022-12-19T09:05:11.122Z,101654.94
2022-12-19T09:07:18.383Z,101677.28
2022-12-19T09:09:48.103Z,101709.66
2022-12-19T09:12:17.365Z,101683.25
2022-12-19T09:14:45.941Z,101696.38
2022-12-19T09:17:15.313Z,101687.50
2022-12-19T09:19:45.111Z,101692.56
2022-12-19T09:22:16.988Z,101648.44
2022-12-19T09:24:45.721Z,101694.66
2022-12-19T09:27:15.562Z,101699.50
2022-12-19T09:29:44.467Z,101697.78
2022-12-19T09:32:12.903Z,101690.66
2022-12-19T09:34:41.279Z,101698.31
2022-12-19T09:37:15.948Z,101692.25
2022-12-19T09:39:47.319Z,101676.44
2022-12-19T09:43:02.313Z,101693.31
2022-12-19T09:45:46.198Z,101695.97
2022-12-19T09:48:22.849Z,101693.59
2022-12-19T09:51:10.532Z,101690.34
2022-12-19T09:53:54.666Z,101688.03
2022-12-19T09:56:45.645Z,101689.97
2022-12-19T09:59:28.725Z,101666.69
2022-12-19T10:02:27.359Z,101665.69
2022-12-19T10:05:27.460Z,101653.25
2022-12-19T10:08:08.299Z,101688.41
2022-12-19T10:12:38.877Z,101665.47
2022-12-19T10:14:04.002Z,101700.28
2022-12-19T10:17:22.440Z,101704.00
2022-12-19T10:19:58.397Z,101690.72
2022-12-19T10:22:39.100Z,101671.06
2022-12-19T10:25:29.235Z,101704.75
2022-12-19T10:28:13.310Z,101696.06
2022-12-19T10:30:48.666Z,101701.97
2022-12-19T10:33:29.819Z,101698.91
2022-12-19T10:36:03.062Z,101693.84
2022-12-19T10:38:38.802Z,101700.91
2022-12-19T10:41:19.437Z,101698.03
2022-12-19T10:44:02.440Z,101691.91
2022-12-19T10:46:42.846Z,101694.78
2022-12-19T10:49:18.789Z,101702.28
2022-12-19T10:52:00.001Z,101682.97
2022-12-19T10:54:41.589Z,101693.22
2022-12-19T10:57:25.498Z,101689.09
2022-12-19T10:59:59.411Z,101694.75
2022-12-19T11:02:44.581Z,101670.94
2022-12-19T11:05:28.232Z,101647.16
2022-12-19T11:08:17.979Z,101680.78
2022-12-19T11:12:48.524Z,101661.28
2022-12-19T11:18:37.845Z,101666.75
2022-12-19T11:21:38.550Z,101671.31
2022-12-19T11:29:43.776Z,101681.88
2022-12-19T11:30:06.588Z,101662.41
2022-12-19T11:30:25.575Z,101677.84
2022-12-19T11:30:47.112Z,101652.81
2022-12-19T11:34:07.050Z,101661.75
2022-12-19T11:36:42.434Z,101672.19
2022-12-19T11:39:19.884Z,101671.00
2022-12-19T11:41:56.316Z,101667.00
2022-12-19T11:44:31.423Z,101643.47
2022-12-19T11:47:14.257Z,101675.38
2022-12-19T11:49:47.446Z,101666.03
2022-12-19T11:55:23.618Z,101652.38
2022-12-19T11:57:52.899Z,101658.44
2022-12-19T12:00:24.556Z,101634.47
2022-12-19T12:03:15.567Z,101648.53
2022-12-19T12:05:45.741Z,101634.53
2022-12-19T12:10:21.217Z,101625.38
2022-12-19T12:18:59.217Z,101623.75
2022-12-19T12:29:17.048Z,101607.28
2022-12-19T12:31:14.804Z,101577.69
2022-12-19T12:31:17.895Z,101594.25
2022-12-19T12:31:23.394Z,101584.25
2022-12-19T12:31:39.011Z,101568.84
2022-12-19T12:31:58.265Z,101586.13
2022-12-19T12:35:28.675Z,101566.81
2022-12-19T12:39:16.039Z,101569.28
2022-12-19T12:42:06.174Z,101554.84
2022-12-19T12:44:44.841Z,101523.22
2022-12-19T12:47:20.491Z,101558.34
2022-12-19T12:49:54.361Z,101507.69
2022-12-19T12:52:31.044Z,101519.88
2022-12-19T12:54:59.635Z,101547.41
2022-12-19T12:57:39.671Z,101535.56
2022-12-19T13:00:22.606Z,101537.34
2022-12-19T13:02:56.287Z,101536.22
2022-12-19T13:05:39.385Z,101523.88
2022-12-19T13:08:36.276Z,101538.94
2022-12-19T13:11:07.952Z,101530.13
2022-12-19T13:13:58.615Z,101520.59
2022-12-19T13:16:54.032Z,101493.00
2022-12-19T13:19:28.440Z,101517.94
2022-12-19T13:22:22.498Z,101486.13
2022-12-19T13:24:53.487Z,101512.16
2022-12-19T13:27:40.684Z,101504.19
2022-12-19T13:30:19.802Z,101505.06
2022-12-19T13:33:11.305Z,101504.09
2022-12-19T13:39:48.280Z,101485.47
2022-12-19T13:39:56.269Z,101511.03
2022-12-19T13:41:59.958Z,101510.88
2022-12-19T13:44:28.859Z,101483.88
2022-12-19T13:46:58.454Z,101507.97
2022-12-19T13:49:34.803Z,101459.50
2022-12-19T13:52:06.316Z,101495.97
2022-12-19T13:54:46.507Z,101496.56
2022-12-19T13:57:23.924Z,101494.06
2022-12-19T14:00:00.575Z,101500.22
2022-12-19T14:02:44.861Z,101481.88
2022-12-19T14:05:53.298Z,101443.16
2022-12-19T14:08:20.854Z,101469.50
2022-12-19T14:11:29.835Z,101467.50
2022-12-19T14:14:12.786Z,101440.44
2022-12-19T14:16:46.445Z,101454.56
2022-12-19T14:19:27.620Z,101441.31
2022-12-19T14:22:03.778Z,101420.72
2022-12-19T14:24:37.009Z,101453.19
2022-12-19T14:28:18.956Z,101453.41
2022-12-19T14:30:27.901Z,101453.19
2022-12-19T14:33:40.694Z,101433.88
2022-12-19T14:36:08.841Z,101454.31
2022-12-19T14:39:22.087Z,101466.59
2022-12-19T14:42:08.341Z,101452.88
2022-12-19T14:53:52.604Z,101456.25
2022-12-19T14:54:08.902Z,101471.94
2022-12-19T14:54:14.803Z,101452.25
2022-12-19T14:54:31.363Z,101478.09
2022-12-19T14:59:05.366Z,101495.41
2022-12-19T15:01:36.721Z,101507.66
2022-12-19T15:04:49.466Z,101503.38
2022-12-19T15:07:12.212Z,101493.50
2022-12-19T15:11:03.347Z,101495.72
2022-12-19T15:14:46.750Z,101501.66
2022-12-19T15:16:05.255Z,101461.94
2022-12-19T15:18:42.475Z,101485.81
2022-12-19T15:21:14.082Z,101452.66
2022-12-19T15:23:44.716Z,101434.94
2022-12-19T15:26:18.187Z,101494.53
2022-12-19T15:28:50.769Z,101469.41
2022-12-19T15:31:30.130Z,101450.81
2022-12-19T15:36:47.373Z,101460.34
2022-12-19T15:39:16.179Z,101468.16
2022-12-19T15:41:49.014Z,101455.34
2022-12-19T15:44:21.288Z,101474.59
2022-12-19T15:46:50.289Z,101470.25
2022-12-19T15:49:21.883Z,101480.03
2022-12-19T15:51:51.317Z,101455.91
2022-12-19T15:57:25.635Z,101460.47
2022-12-19T15:59:54.518Z,101495.31
2022-12-19T16:02:27.896Z,101484.81
2022-12-19T16:05:06.933Z,101489.47
2022-12-19T16:07:35.308Z,101483.66
2022-12-19T16:10:03.728Z,101481.88
2022-12-19T16:12:39.079Z,101479.09
2022-12-19T16:15:16.429Z,101488.22
2022-12-19T16:17:44.734Z,101487.34
2022-12-19T16:20:20.087Z,101481.81
2022-12-19T16:22:48.651Z,101488.69
2022-12-19T16:25:17.351Z,101485.41
2022-12-19T16:27:52.113Z,101480.41
2022-12-19T16:30:24.025Z,101451.47
2022-12-19T16:32:53.474Z,101421.97
2022-12-19T16:36:02.501Z,101415.69
2022-12-19T16:38:17.461Z,101440.13
2022-12-19T16:40:47.191Z,101426.25
2022-12-19T16:43:31.271Z,101435.69
2022-12-19T16:46:01.763Z,101471.50
2022-12-19T16:48:31.641Z,101464.44
2022-12-19T16:51:00.867Z,101473.84
2022-12-19T16:53:29.402Z,101453.75
2022-12-19T16:56:00.501Z,101464.06
2022-12-19T16:58:34.484Z,101461.94
2022-12-19T17:01:05.244Z,101464.97
2022-12-19T17:03:40.874Z,101465.16
2022-12-19T17:06:12.394Z,101464.22
2022-12-19T17:08:44.157Z,101461.66
2022-12-19T17:11:19.886Z,101440.63
2022-12-19T17:13:53.575Z,101444.47
2022-12-19T17:16:22.127Z,101462.72
2022-12-19T17:18:50.615Z,101459.88
2022-12-19T17:21:21.620Z,101461.75
2022-12-19T17:23:50.734Z,101470.75
2022-12-19T17:26:19.434Z,101462.91
2022-12-19T17:28:49.337Z,101446.81
2022-12-19T17:31:24.277Z,101443.13
2022-12-19T17:33:53.321Z,101470.09
2022-12-19T17:36:26.087Z,101468.00
2022-12-19T17:38:55.967Z,101460.19
2022-12-19T17:41:25.484Z,101442.50
2022-12-19T17:43:55.177Z,101452.97
2022-12-19T17:46:25.743Z,101432.16
2022-12-19T17:48:55.295Z,101467.31
2022-12-19T17:51:24.716Z,101462.94
2022-12-19T17:53:53.017Z,101467.38
2022-12-19T17:56:22.359Z,101435.69
2022-12-19T17:58:51.132Z,101475.72
2022-12-19T18:01:23.852Z,101452.88
2022-12-19T18:03:56.110Z,101472.50
2022-12-19T18:06:24.593Z,101485.78
2022-12-19T18:08:52.942Z,101445.94
2022-12-19T18:11:24.086Z,101443.13
2022-12-19T18:13:54.596Z,101455.25
2022-12-19T18:16:28.348Z,101454.69
2022-12-19T18:18:56.915Z,101473.63
2022-12-19T18:21:25.315Z,101468.97
2022-12-19T18:23:53.772Z,101466.28
2022-12-19T18:26:22.109Z,101467.88
2022-12-19T18:28:50.437Z,101450.22
2022-12-19T18:31:25.525Z,101461.47
2022-12-19T18:33:59.559Z,101464.41
2022-12-19T18:36:40.086Z,101454.63
2022-12-19T18:39:21.086Z,101469.19
2022-12-19T18:41:50.252Z,101463.53
2022-12-19T18:44:19.342Z,101479.22
2022-12-19T18:46:50.670Z,101463.53
2022-12-19T18:49:19.072Z,101478.47
2022-12-19T18:51:47.753Z,101483.38
2022-12-19T18:54:18.747Z,101481.19
2022-12-19T18:56:48.647Z,101486.25
2022-12-19T18:59:17.244Z,101453.41
2022-12-19T19:01:48.400Z,101495.88
2022-12-19T19:04:18.368Z,101504.59
2022-12-19T19:06:52.156Z,101456.78
2022-12-19T19:09:22.623Z,101507.09
2022-12-19T19:11:59.317Z,101480.84
2022-12-19T19:14:27.622Z,101500.56
2022-12-19T19:16:57.307Z,101506.72
2022-12-19T19:19:26.194Z,101495.31
2022-12-19T19:21:55.343Z,101524.56
2022-12-19T19:24:24.457Z,101486.31
2022-12-19T19:26:53.037Z,101519.91
2022-12-19T19:29:21.381Z,101507.41
2022-12-19T19:31:52.855Z,101524.06
2022-12-19T19:34:27.118Z,101531.91
2022-12-19T19:36:58.343Z,101526.41
2022-12-19T19:39:27.730Z,101532.56
2022-12-19T19:41:56.841Z,101537.03
2022-12-19T19:44:25.155Z,101543.03
2022-12-19T19:46:53.943Z,101540.47
2022-12-19T19:49:24.347Z,101516.28
2022-12-19T19:51:58.507Z,101529.59
2022-12-19T19:54:30.698Z,101504.72
2022-12-19T19:56:59.527Z,101546.88
2022-12-19T19:59:31.746Z,101541.88
2022-12-19T20:02:00.232Z,101556.09
2022-12-19T20:04:30.262Z,101551.63
2022-12-19T20:06:58.826Z,101554.66
2022-12-19T20:09:27.204Z,101560.97
2022-12-19T20:11:56.643Z,101560.19
2022-12-19T20:14:26.553Z,101525.47
2022-12-19T20:16:55.240Z,101534.38
2022-12-19T20:19:23.789Z,101565.38
2022-12-19T20:21:53.554Z,101560.88
2022-12-19T20:24:21.907Z,101556.97
2022-12-19T20:26:50.355Z,101534.28
2022-12-19T20:29:18.987Z,101545.34
2022-12-19T20:31:47.721Z,101530.03
2022-12-19T20:34:16.380Z,101548.41
2022-12-19T20:36:45.131Z,101564.06
2022-12-19T20:39:15.147Z,101558.88
2022-12-19T20:41:43.500Z,101565.53
2022-12-19T20:44:11.815Z,101569.97
2022-12-19T20:46:40.250Z,101539.84
2022-12-19T20:49:08.968Z,101559.84
2022-12-19T20:51:38.041Z,101532.16
2022-12-19T20:54:07.344Z,101545.34
2022-12-19T20:56:37.223Z,101549.13
2022-12-19T20:59:05.971Z,101549.13
2022-12-19T21:01:34.546Z,101533.66
2022-12-19T21:04:03.206Z,101529.28
2022-12-19T21:06:31.930Z,101543.03
2022-12-19T21:09:00.225Z,101532.50
2022-12-19T21:11:28.630Z,101543.09
2022-12-19T21:13:58.461Z,101546.59
2022-12-19T21:16:28.004Z,101540.44
2022-12-19T21:18:56.331Z,101551.53
2022-12-19T21:21:27.811Z,101538.91
2022-12-19T21:23:56.709Z,101556.44
2022-12-19T21:26:26.664Z,101544.59
2022-12-19T21:28:57.870Z,101540.16
2022-12-19T21:31:30.936Z,101550.53
2022-12-19T21:34:02.415Z,101526.44
2022-12-19T21:36:32.169Z,101525.75
2022-12-19T21:39:02.673Z,101549.66
2022-12-19T21:41:31.717Z,101534.66
2022-12-19T21:44:00.886Z,101552.66
2022-12-19T21:46:33.981Z,101527.47
2022-12-19T21:49:03.271Z,101535.81
2022-12-19T21:51:32.958Z,101525.84
2022-12-19T21:54:04.165Z,101543.28
2022-12-19T21:56:35.096Z,101555.75
2022-12-19T21:59:06.845Z,101559.13
2022-12-19T22:01:36.897Z,101546.25
2022-12-19T22:04:08.553Z,101535.66
2022-12-19T22:06:39.253Z,101550.28
2022-12-19T22:09:10.627Z,101545.47
2022-12-19T22:11:39.400Z,101537.63
2022-12-19T22:14:08.567Z,101533.16
2022-12-19T22:16:38.436Z,101521.84
2022-12-19T22:19:07.223Z,101518.75
2022-12-19T22:21:38.543Z,101500.28
2022-12-19T22:24:07.584Z,101517.38
2022-12-19T22:26:36.464Z,101504.97
2022-12-19T22:29:09.383Z,101484.28
2022-12-19T22:31:40.785Z,101491.47
2022-12-19T22:34:13.031Z,101495.06
2022-12-19T22:36:43.400Z,101494.94
2022-12-19T22:39:16.393Z,101499.41
2022-12-19T22:41:45.268Z,101501.47
2022-12-19T22:44:19.006Z,101498.28
2022-12-19T22:46:49.666Z,101472.38
2022-12-19T22:49:18.527Z,101493.31
2022-12-19T22:51:48.254Z,101494.28
2022-12-19T22:54:16.637Z,101494.31
2022-12-19T22:56:44.981Z,101496.31
2022-12-19T22:59:13.895Z,101498.28
2022-12-19T23:01:44.397Z,101488.34
2022-12-19T23:04:17.466Z,101498.25
2022-12-19T23:06:46.513Z,101476.25
2022-12-19T23:09:17.160Z,101497.13
2022-12-19T23:11:48.916Z,101494.03
2022-12-19T23:14:19.968Z,101459.41
2022-12-19T23:16:49.783Z,101490.44
2022-12-19T23:19:20.125Z,101485.50
2022-12-19T23:21:48.806Z,101507.97
2022-12-19T23:24:17.263Z,101497.78
2022-12-19T23:26:46.295Z,101488.78
2022-12-19T23:29:16.309Z,101485.06
2022-12-19T23:31:48.079Z,101470.97
2022-12-19T23:34:16.992Z,101460.06
2022-12-19T23:39:35.327Z,101472.75
2022-12-19T23:42:03.738Z,101458.59
2022-12-19T23:44:32.181Z,101456.28
2022-12-19T23:47:03.400Z,101458.94
2022-12-19T23:49:33.444Z,101449.47
2022-12-19T23:52:03.484Z,101458.53
2022-12-19T23:54:31.969Z,101467.44
2022-12-19T23:57:00.337Z,101457.84
2022-12-19T23:59:28.759Z,101454.34
